Time;durP1;ratioP1;P1;durP2;ratioP2;P2;SDS_P1;SDS_P2;PMS_P1;PMS_P2;Temp;Humidity;BMP_temperature;BMP_pressure;BME280_temperature;BME280_humidity;BME280_pressure;Samples;Min_cycle;Max_cycle;Signal;HPM_P1;HPM_P2
2022/06/11 00:01:55;;;;;;;2.92;2.15;;;;;;;;;;5084150;28;20177;-68
2022/06/11 00:04:27;;;;;;;2.88;2.30;;;;;;;;;;5083424;28;20184;-68
2022/06/11 00:06:56;;;;;;;7.35;2.70;;;;;;;;;;5083891;28;20196;-68
2022/06/11 00:09:23;;;;;;;4.30;2.45;;;;;;;;;;5084181;28;20196;-67
2022/06/11 00:11:51;;;;;;;4.43;2.42;;;;;;;;;;5083801;28;20199;-68
2022/06/11 00:14:17;;;;;;;2.65;2.20;;;;;;;;;;5083311;28;20189;-68
2022/06/11 00:16:44;;;;;;;3.13;2.70;;;;;;;;;;5059992;28;20196;-67
2022/06/11 00:19:11;;;;;;;3.83;2.55;;;;;;;;;;5083855;28;20181;-68
2022/06/11 00:21:38;;;;;;;2.40;2.20;;;;;;;;;;5083956;28;20172;-70
2022/06/11 00:24:04;;;;;;;3.30;2.20;;;;;;;;;;5083355;28;20201;-67
2022/06/11 00:26:30;;;;;;;2.65;2.30;;;;;;;;;;5064385;28;20204;-69
2022/06/11 00:28:57;;;;;;;3.60;2.30;;;;;;;;;;5084234;28;20181;-68
2022/06/11 00:31:23;;;;;;;6.97;2.63;;;;;;;;;;5065929;28;20223;-68
2022/06/11 00:33:49;;;;;;;2.92;2.35;;;;;;;;;;5059266;28;20604;-68
2022/06/11 00:36:17;;;;;;;3.65;2.30;;;;;;;;;;5087942;28;20192;-70
2022/06/11 00:38:43;;;;;;;4.43;2.75;;;;;;;;;;5087822;28;20201;-69
2022/06/11 00:41:09;;;;;;;3.55;2.53;;;;;;;;;;5087271;28;20203;-68
2022/06/11 00:43:39;;;;;;;5.15;2.38;;;;;;;;;;5087223;28;20177;-68
2022/06/11 00:46:24;;;;;;;4.10;2.60;;;;;;;;;;5087693;28;20169;-68
2022/06/11 00:48:50;;;;;;;4.80;2.30;;;;;;;;;;5087334;28;20183;-69
2022/06/11 00:51:20;;;;;;;3.05;2.15;;;;;;;;;;5068094;28;20207;-68
2022/06/11 00:53:46;;;;;;;4.00;2.03;;;;;;;;;;5068804;28;20204;-70
2022/06/11 00:56:15;;;;;;;4.65;2.20;;;;;;;;;;5087001;28;20204;-69
2022/06/11 00:58:45;;;;;;;3.42;2.13;;;;;;;;;;5087241;28;20165;-69
2022/06/11 01:01:13;;;;;;;4.43;2.35;;;;;;;;;;5087411;28;20199;-69
2022/06/11 01:03:41;;;;;;;3.33;2.25;;;;;;;;;;5086821;28;20173;-69
2022/06/11 01:06:16;;;;;;;3.83;2.30;;;;;;;;;;5087168;28;20267;-69
2022/06/11 01:08:49;;;;;;;2.90;2.00;;;;;;;;;;5087197;28;20223;-68
2022/06/11 01:11:24;;;;;;;3.88;2.45;;;;;;;;;;5087498;28;20177;-69
2022/06/11 01:14:05;;;;;;;3.03;2.13;;;;;;;;;;5086147;28;20604;-69
2022/06/11 01:16:35;;;;;;;2.85;2.05;;;;;;;;;;5087430;28;20303;-69
2022/06/11 01:19:01;;;;;;;4.65;2.13;;;;;;;;;;5087710;28;20181;-69
2022/06/11 01:21:56;;;;;;;2.92;2.05;;;;;;;;;;5068978;28;20675;-69
2022/06/11 01:24:48;;;;;;;3.00;2.50;;;;;;;;;;5086595;28;20189;-68
2022/06/11 01:27:33;;;;;;;3.90;1.92;;;;;;;;;;5063936;28;20589;-70
2022/06/11 01:29:59;;;;;;;3.70;1.92;;;;;;;;;;5068653;28;20208;-66
2022/06/11 01:32:51;;;;;;;3.50;2.10;;;;;;;;;;5086755;28;20201;-66
2022/06/11 01:35:35;;;;;;;3.50;2.42;;;;;;;;;;5047865;28;20185;-66
2022/06/11 01:38:06;;;;;;;2.40;2.20;;;;;;;;;;5068157;28;20204;-68
2022/06/11 01:40:35;;;;;;;2.45;2.20;;;;;;;;;;5087469;28;20202;-68
2022/06/11 01:43:13;;;;;;;2.83;2.35;;;;;;;;;;5086987;28;20188;-68
2022/06/11 01:45:40;;;;;;;2.40;2.20;;;;;;;;;;5067810;28;20176;-70
2022/06/11 01:48:07;;;;;;;3.50;2.15;;;;;;;;;;5068218;28;20620;-68
2022/06/11 01:50:36;;;;;;;2.30;2.00;;;;;;;;;;5086440;28;20231;-68
2022/06/11 01:53:22;;;;;;;3.67;2.38;;;;;;;;;;5086004;28;20204;-68
2022/06/11 01:55:54;;;;;;;2.80;2.13;;;;;;;;;;5085321;28;20699;-68
2022/06/11 01:58:39;;;;;;;3.55;2.35;;;;;;;;;;5067876;28;20193;-69
2022/06/11 02:01:06;;;;;;;2.67;2.33;;;;;;;;;;5064320;28;20280;-67
2022/06/11 02:03:44;;;;;;;4.20;2.47;;;;;;;;;;5085935;28;20219;-67
2022/06/11 02:06:21;;;;;;;4.00;2.47;;;;;;;;;;5086090;28;20185;-67
2022/06/11 02:09:09;;;;;;;3.00;2.22;;;;;;;;;;5067921;28;20180;-69
2022/06/11 02:11:39;;;;;;;2.67;2.08;;;;;;;;;;5086087;28;20188;-68
2022/06/11 02:14:25;;;;;;;3.90;2.90;;;;;;;;;;5085183;28;20261;-70
2022/06/11 02:16:56;;;;;;;4.75;2.28;;;;;;;;;;5085549;28;20203;-68
2022/06/11 02:19:25;;;;;;;2.70;2.35;;;;;;;;;;5086174;28;20290;-69
2022/06/11 02:21:57;;;;;;;4.15;2.47;;;;;;;;;;5067783;28;20177;-67
2022/06/11 02:24:37;;;;;;;2.67;2.28;;;;;;;;;;5085126;28;20199;-69
2022/06/11 02:27:06;;;;;;;2.67;2.20;;;;;;;;;;5085471;28;20258;-68
2022/06/11 02:29:33;;;;;;;3.50;2.22;;;;;;;;;;5085832;28;20177;-68
2022/06/11 02:32:05;;;;;;;3.67;2.75;;;;;;;;;;5085688;28;21156;-69
2022/06/11 02:34:31;;;;;;;3.88;2.38;;;;;;;;;;5085315;28;20204;-67
2022/06/11 02:37:02;;;;;;;3.13;2.45;;;;;;;;;;5085493;28;20279;-68
2022/06/11 02:39:29;;;;;;;3.53;2.47;;;;;;;;;;5085842;28;20185;-67
2022/06/11 02:41:57;;;;;;;2.53;1.92;;;;;;;;;;5085581;28;20195;-69
2022/06/11 02:44:23;;;;;;;3.92;2.38;;;;;;;;;;5084875;28;20203;-67
2022/06/11 02:46:49;;;;;;;3.33;2.80;;;;;;;;;;5084322;28;20265;-69
2022/06/11 02:49:19;;;;;;;3.60;2.70;;;;;;;;;;5067071;28;20185;-68
2022/06/11 02:51:46;;;;;;;3.35;2.33;;;;;;;;;;5084892;28;20823;-69
2022/06/11 02:54:12;;;;;;;4.35;2.72;;;;;;;;;;5084734;28;20617;-67
2022/06/11 02:56:38;;;;;;;4.38;2.17;;;;;;;;;;5065641;28;20204;-68
2022/06/11 02:59:04;;;;;;;3.35;2.58;;;;;;;;;;5066866;28;20255;-69
2022/06/11 03:01:30;;;;;;;3.22;2.10;;;;;;;;;;5065939;28;20289;-68
2022/06/11 03:03:57;;;;;;;4.50;2.70;;;;;;;;;;5084718;28;20180;-68
2022/06/11 03:06:24;;;;;;;3.85;2.40;;;;;;;;;;5085253;28;20249;-68
2022/06/11 03:08:50;;;;;;;2.45;2.22;;;;;;;;;;5084958;28;20275;-67
2022/06/11 03:11:17;;;;;;;2.70;2.50;;;;;;;;;;5084598;28;20180;-68
2022/06/11 03:13:43;;;;;;;3.78;2.30;;;;;;;;;;5084196;28;20452;-67
2022/06/11 03:16:09;;;;;;;4.65;2.28;;;;;;;;;;5084393;28;20265;-68
2022/06/11 03:18:35;;;;;;;2.65;1.90;;;;;;;;;;5065823;28;20259;-67
2022/06/11 03:21:01;;;;;;;2.63;2.30;;;;;;;;;;5084729;28;20524;-68
2022/06/11 03:23:29;;;;;;;3.28;2.15;;;;;;;;;;5066117;28;20180;-68
2022/06/11 03:25:55;;;;;;;2.90;2.35;;;;;;;;;;5086265;28;20165;-67
2022/06/11 03:28:23;;;;;;;3.38;2.45;;;;;;;;;;5065843;28;20637;-68
2022/06/11 03:30:49;;;;;;;3.22;2.20;;;;;;;;;;5066290;28;20303;-68
2022/06/11 03:33:15;;;;;;;2.70;2.10;;;;;;;;;;5085179;28;20247;-68
2022/06/11 03:35:43;;;;;;;3.80;2.10;;;;;;;;;;5066076;28;20884;-67
2022/06/11 03:38:09;;;;;;;3.38;1.88;;;;;;;;;;5084973;28;20658;-69
2022/06/11 03:40:36;;;;;;;2.05;1.90;;;;;;;;;;5066733;28;20268;-67
2022/06/11 03:43:02;;;;;;;2.15;1.95;;;;;;;;;;5063931;28;20184;-68
2022/06/11 03:45:29;;;;;;;4.47;1.92;;;;;;;;;;5061564;28;20177;-68
2022/06/11 03:47:55;;;;;;;2.80;2.00;;;;;;;;;;5065596;28;20201;-69
2022/06/11 03:50:23;;;;;;;3.40;2.20;;;;;;;;;;5066074;28;20229;-67
2022/06/11 03:52:49;;;;;;;3.80;2.17;;;;;;;;;;5084366;28;20193;-69
2022/06/11 03:55:15;;;;;;;3.20;2.00;;;;;;;;;;5084876;28;20176;-70
2022/06/11 03:57:41;;;;;;;5.40;2.20;;;;;;;;;;5066264;28;20600;-69
2022/06/11 04:00:09;;;;;;;3.40;1.80;;;;;;;;;;5071452;28;20176;-67
2022/06/11 04:02:36;;;;;;;2.72;1.70;;;;;;;;;;5085234;28;20169;-69
2022/06/11 04:05:02;;;;;;;1.90;1.65;;;;;;;;;;5064588;28;20298;-69
2022/06/11 04:07:28;;;;;;;4.25;2.15;;;;;;;;;;5065845;28;20209;-67
2022/06/11 04:09:54;;;;;;;2.70;1.85;;;;;;;;;;5065805;28;20176;-67
2022/06/11 04:12:20;;;;;;;2.00;1.70;;;;;;;;;;5084199;28;20188;-68
2022/06/11 04:14:47;;;;;;;4.10;1.90;;;;;;;;;;5083247;28;20577;-68
2022/06/11 04:17:19;;;;;;;3.05;1.80;;;;;;;;;;5084319;28;20200;-69
2022/06/11 04:19:47;;;;;;;2.65;1.90;;;;;;;;;;5065590;28;20169;-67
2022/06/11 04:22:13;;;;;;;4.30;2.10;;;;;;;;;;5083991;28;20184;-69
2022/06/11 04:24:40;;;;;;;3.13;2.08;;;;;;;;;;5083668;28;20181;-67
2022/06/11 04:27:07;;;;;;;2.80;1.77;;;;;;;;;;5086565;28;20204;-68
2022/06/11 04:29:34;;;;;;;2.88;2.13;;;;;;;;;;5060111;28;20192;-67
2022/06/11 04:32:04;;;;;;;1.77;1.65;;;;;;;;;;5085414;28;20212;-69
2022/06/11 04:34:31;;;;;;;2.60;1.88;;;;;;;;;;5085291;28;20350;-67
2022/06/11 04:36:57;;;;;;;3.33;1.83;;;;;;;;;;5084278;28;20655;-68
2022/06/11 04:39:26;;;;;;;1.70;1.60;;;;;;;;;;5086852;28;20184;-68
2022/06/11 04:41:53;;;;;;;3.58;2.00;;;;;;;;;;5085023;28;20185;-68
2022/06/11 04:44:19;;;;;;;2.22;1.70;;;;;;;;;;5083491;28;20200;-67
2022/06/11 04:46:45;;;;;;;3.95;1.70;;;;;;;;;;5083815;28;20197;-69
2022/06/11 04:49:12;;;;;;;3.67;1.77;;;;;;;;;;5084902;28;20181;-68
2022/06/11 04:51:38;;;;;;;1.67;1.50;;;;;;;;;;5085112;28;20275;-68
2022/06/11 04:54:05;;;;;;;2.83;1.58;;;;;;;;;;5084556;28;20217;-70
2022/06/11 04:56:31;;;;;;;2.13;1.55;;;;;;;;;;5084434;28;20695;-69
2022/06/11 04:58:57;;;;;;;3.55;1.75;;;;;;;;;;5085662;28;21389;-69
2022/06/11 05:01:27;;;;;;;2.28;1.50;;;;;;;;;;5085883;28;20178;-69
2022/06/11 05:03:53;;;;;;;3.80;1.83;;;;;;;;;;5066588;28;20181;-68
2022/06/11 05:06:22;;;;;;;2.63;1.33;;;;;;;;;;5085167;28;20233;-68
2022/06/11 05:08:49;;;;;;;4.35;1.63;;;;;;;;;;5085528;28;20256;-69
2022/06/11 05:11:15;;;;;;;3.97;1.40;;;;;;;;;;5084870;28;20287;-68
2022/06/11 05:13:41;;;;;;;1.80;1.27;;;;;;;;;;5084395;28;20595;-68
2022/06/11 05:16:07;;;;;;;2.95;1.17;;;;;;;;;;5063701;28;20177;-69
2022/06/11 05:18:33;;;;;;;1.80;1.17;;;;;;;;;;5085489;28;20216;-68
2022/06/11 05:21:09;;;;;;;2.15;1.33;;;;;;;;;;5088651;28;20181;-68
2022/06/11 05:23:35;;;;;;;2.33;1.20;;;;;;;;;;5072094;28;20173;-68
2022/06/11 05:26:02;;;;;;;2.67;1.50;;;;;;;;;;5070087;28;20180;-68
2022/06/11 05:28:31;;;;;;;2.33;1.40;;;;;;;;;;5069692;28;20189;-69
2022/06/11 05:30:58;;;;;;;1.45;1.10;;;;;;;;;;5088368;28;20181;-68
2022/06/11 05:33:24;;;;;;;2.10;1.30;;;;;;;;;;5088421;28;20220;-69
2022/06/11 05:35:51;;;;;;;3.25;1.58;;;;;;;;;;5066561;28;20255;-68
2022/06/11 05:38:19;;;;;;;2.42;1.33;;;;;;;;;;5070016;28;20224;-69
2022/06/11 05:40:47;;;;;;;1.88;1.20;;;;;;;;;;5089021;28;20225;-69
2022/06/11 05:43:14;;;;;;;2.33;1.38;;;;;;;;;;5070840;28;20639;-67
2022/06/11 05:45:48;;;;;;;2.50;1.45;;;;;;;;;;5062018;28;20180;-68
2022/06/11 05:48:15;;;;;;;2.17;1.30;;;;;;;;;;5090306;28;20690;-68
2022/06/11 05:50:45;;;;;;;2.47;1.25;;;;;;;;;;5070860;28;20180;-67
2022/06/11 05:53:13;;;;;;;2.20;1.10;;;;;;;;;;5072393;28;20236;-68
2022/06/11 05:55:40;;;;;;;2.03;1.10;;;;;;;;;;5059458;28;20636;-68
2022/06/11 05:58:08;;;;;;;1.70;1.10;;;;;;;;;;5063873;28;20197;-68
2022/06/11 06:00:35;;;;;;;1.67;1.30;;;;;;;;;;5070737;28;20525;-69
2022/06/11 06:03:01;;;;;;;1.98;1.23;;;;;;;;;;5071400;28;20659;-68
2022/06/11 06:05:30;;;;;;;1.50;1.00;;;;;;;;;;5069965;28;20562;-68
2022/06/11 06:07:57;;;;;;;2.15;1.20;;;;;;;;;;5070317;28;20767;-68
2022/06/11 06:10:55;;;;;;;2.15;1.33;;;;;;;;;;5043780;28;20186;-68
2022/06/11 06:16:05;;;;;;;1.88;1.10;;;;;;;;;;5088304;28;20623;-68
2022/06/11 06:18:31;;;;;;;2.05;1.02;;;;;;;;;;5087048;28;20180;-69
2022/06/11 06:20:57;;;;;;;2.20;1.20;;;;;;;;;;5086343;28;20181;-68
2022/06/11 06:23:23;;;;;;;2.13;1.17;;;;;;;;;;5088267;28;20223;-68
2022/06/11 06:25:49;;;;;;;2.22;1.17;;;;;;;;;;5088278;28;20238;-71
2022/06/11 06:28:16;;;;;;;3.67;1.40;;;;;;;;;;5070384;28;20197;-68
2022/06/11 06:30:42;;;;;;;1.42;1.13;;;;;;;;;;5088863;28;20654;-68
2022/06/11 06:33:08;;;;;;;4.00;1.75;;;;;;;;;;5068962;28;20208;-70
2022/06/11 06:35:35;;;;;;;1.98;1.30;;;;;;;;;;5088159;28;20290;-68
2022/06/11 06:38:46;;;;;;;2.75;1.20;;;;;;;;;;5090903;28;20195;-68
2022/06/11 06:41:14;;;;;;;3.30;1.30;;;;;;;;;;5074950;28;20184;-69
2022/06/11 06:43:41;;;;;;;1.85;1.13;;;;;;;;;;5065129;28;20173;-68
2022/06/11 06:46:07;;;;;;;3.15;1.20;;;;;;;;;;5073295;28;20502;-68
2022/06/11 06:48:33;;;;;;;1.48;1.20;;;;;;;;;;5068929;28;20184;-70
2022/06/11 06:50:59;;;;;;;2.30;0.95;;;;;;;;;;5089052;28;20619;-70
2022/06/11 06:53:26;;;;;;;5.07;1.50;;;;;;;;;;5072410;28;20192;-68
2022/06/11 06:55:52;;;;;;;1.20;1.00;;;;;;;;;;5069075;28;20486;-69
2022/06/11 06:58:19;;;;;;;2.95;1.30;;;;;;;;;;5085475;28;20648;-68
2022/06/11 07:00:46;;;;;;;3.75;1.55;;;;;;;;;;5085129;28;20632;-67
2022/06/11 07:03:12;;;;;;;2.40;1.42;;;;;;;;;;5084969;28;20262;-68
2022/06/11 07:05:38;;;;;;;2.53;1.40;;;;;;;;;;5085643;28;20250;-68
2022/06/11 07:08:05;;;;;;;3.90;1.50;;;;;;;;;;5085073;28;20204;-69
2022/06/11 07:10:32;;;;;;;3.03;1.45;;;;;;;;;;5084927;28;20284;-69
2022/06/11 07:12:58;;;;;;;4.65;1.98;;;;;;;;;;5084612;28;20200;-70
2022/06/11 07:15:24;;;;;;;2.33;1.45;;;;;;;;;;5084185;28;20195;-68
2022/06/11 07:17:55;;;;;;;2.53;1.20;;;;;;;;;;5085062;28;20223;-68
2022/06/11 07:20:23;;;;;;;2.40;1.27;;;;;;;;;;5085140;28;20215;-69
2022/06/11 07:22:56;;;;;;;2.60;1.33;;;;;;;;;;5085706;28;20207;-68
2022/06/11 07:25:22;;;;;;;3.03;1.45;;;;;;;;;;5084101;28;20161;-69
2022/06/11 07:27:51;;;;;;;2.80;1.20;;;;;;;;;;5084395;28;20269;-69
2022/06/11 07:30:20;;;;;;;4.20;1.60;;;;;;;;;;5085619;28;20181;-71
2022/06/11 07:32:48;;;;;;;4.80;1.60;;;;;;;;;;5084642;28;20196;-67
2022/06/11 07:35:15;;;;;;;4.75;1.73;;;;;;;;;;5084105;28;20252;-67
2022/06/11 07:37:42;;;;;;;3.75;1.63;;;;;;;;;;5082978;28;20220;-67
2022/06/11 07:40:08;;;;;;;2.17;1.42;;;;;;;;;;5084330;28;20173;-68
2022/06/11 07:42:34;;;;;;;3.05;1.52;;;;;;;;;;5083768;28;20180;-68
2022/06/11 07:45:00;;;;;;;2.92;1.50;;;;;;;;;;5083747;28;20264;-69
2022/06/11 07:50:12;;;;;;;3.50;1.60;;;;;;;;;;5084214;28;20188;-69
2022/06/11 07:52:39;;;;;;;3.33;1.50;;;;;;;;;;5083963;28;20204;-68
2022/06/11 07:55:05;;;;;;;2.00;1.52;;;;;;;;;;5083584;28;20268;-69
2022/06/11 07:57:31;;;;;;;3.65;2.05;;;;;;;;;;5084021;28;20284;-69
2022/06/11 07:59:57;;;;;;;2.85;1.65;;;;;;;;;;5084035;28;20601;-70
2022/06/11 08:02:24;;;;;;;2.92;1.63;;;;;;;;;;5084153;28;20173;-68
2022/06/11 08:04:50;;;;;;;7.55;2.05;;;;;;;;;;5082888;28;20177;-68
2022/06/11 08:07:16;;;;;;;2.83;1.80;;;;;;;;;;5083744;28;20259;-69
2022/06/11 08:09:42;;;;;;;4.25;1.90;;;;;;;;;;5084083;28;20678;-68
2022/06/11 08:12:08;;;;;;;5.18;1.60;;;;;;;;;;5084024;28;20204;-68
2022/06/11 08:14:34;;;;;;;3.40;1.92;;;;;;;;;;5083200;28;20199;-69
2022/06/11 08:17:00;;;;;;;4.75;2.42;;;;;;;;;;5083941;28;20188;-67
2022/06/11 08:19:26;;;;;;;3.65;1.90;;;;;;;;;;5083502;28;20180;-68
2022/06/11 08:21:53;;;;;;;2.33;1.70;;;;;;;;;;5083619;28;20189;-69
2022/06/11 08:24:19;;;;;;;3.53;2.08;;;;;;;;;;5082968;28;20223;-70
2022/06/11 08:26:45;;;;;;;3.38;1.90;;;;;;;;;;5083669;28;20205;-70
2022/06/11 08:29:11;;;;;;;5.07;2.05;;;;;;;;;;5083651;28;20173;-71
2022/06/11 08:31:37;;;;;;;3.72;1.92;;;;;;;;;;5083815;28;20192;-68
2022/06/11 08:34:04;;;;;;;2.92;1.95;;;;;;;;;;5082547;28;20205;-70
2022/06/11 08:36:30;;;;;;;4.32;2.00;;;;;;;;;;5083435;28;20551;-70
2022/06/11 08:38:56;;;;;;;3.20;2.17;;;;;;;;;;5083855;28;20187;-69
2022/06/11 08:41:25;;;;;;;2.25;1.55;;;;;;;;;;5083533;28;20259;-68
2022/06/11 08:44:00;;;;;;;5.00;1.77;;;;;;;;;;5080850;28;20192;-68
2022/06/11 08:46:27;;;;;;;5.07;2.28;;;;;;;;;;5083022;28;20557;-69
2022/06/11 08:49:02;;;;;;;3.10;1.88;;;;;;;;;;5083069;28;20643;-68
2022/06/11 08:51:33;;;;;;;4.00;1.63;;;;;;;;;;5083160;28;20188;-68
2022/06/11 08:54:00;;;;;;;3.80;2.05;;;;;;;;;;5082372;28;20292;-72
2022/06/11 08:56:36;;;;;;;3.40;1.98;;;;;;;;;;5086840;28;20197;-69
2022/06/11 08:59:11;;;;;;;3.20;1.55;;;;;;;;;;5087190;28;20267;-69
2022/06/11 09:01:44;;;;;;;3.20;1.67;;;;;;;;;;5087103;28;20184;-68
2022/06/11 09:04:22;;;;;;;3.13;1.63;;;;;;;;;;5086378;28;20180;-69
2022/06/11 09:06:48;;;;;;;3.90;1.83;;;;;;;;;;5086544;28;20287;-68
2022/06/11 09:09:25;;;;;;;4.30;1.70;;;;;;;;;;5086932;28;20271;-68
2022/06/11 09:12:14;;;;;;;2.42;1.45;;;;;;;;;;5086673;28;20172;-69
2022/06/11 09:14:52;;;;;;;3.78;1.60;;;;;;;;;;5085193;28;20185;-69
2022/06/11 09:17:31;;;;;;;2.35;1.50;;;;;;;;;;5086236;28;20813;-68
2022/06/11 09:20:12;;;;;;;2.17;1.33;;;;;;;;;;5086379;28;20161;-69
2022/06/11 09:22:53;;;;;;;3.90;1.52;;;;;;;;;;5086439;28;20685;-69
2022/06/11 09:25:24;;;;;;;1.80;1.45;;;;;;;;;;5086096;28;20230;-69
2022/06/11 09:27:52;;;;;;;4.05;1.50;;;;;;;;;;5068351;28;20212;-68
2022/06/11 09:30:24;;;;;;;1.55;1.13;;;;;;;;;;5086120;28;20528;-70
2022/06/11 09:33:03;;;;;;;2.03;1.40;;;;;;;;;;5086505;28;20718;-69
2022/06/11 09:35:29;;;;;;;3.55;1.10;;;;;;;;;;5086003;28;20184;-68
2022/06/11 09:38:13;;;;;;;1.85;1.23;;;;;;;;;;5085933;28;20530;-69
2022/06/11 09:40:44;;;;;;;2.17;1.42;;;;;;;;;;5086205;28;20264;-69
2022/06/11 09:43:18;;;;;;;4.43;1.77;;;;;;;;;;5086491;28;20183;-70
2022/06/11 09:46:02;;;;;;;2.78;1.42;;;;;;;;;;5085402;28;20176;-69
2022/06/11 09:48:34;;;;;;;1.50;1.10;;;;;;;;;;5086192;28;20189;-70
2022/06/11 09:51:19;;;;;;;2.65;1.45;;;;;;;;;;5062847;28;20569;-69
2022/06/11 09:53:50;;;;;;;1.30;1.20;;;;;;;;;;5085185;28;20568;-69
2022/06/11 09:56:16;;;;;;;3.38;1.30;;;;;;;;;;5086181;28;20231;-69
2022/06/11 09:58:58;;;;;;;1.10;1.00;;;;;;;;;;5086073;28;20185;-69
2022/06/11 10:01:35;;;;;;;2.67;1.20;;;;;;;;;;5085518;28;20180;-71
2022/06/11 10:04:05;;;;;;;2.42;1.35;;;;;;;;;;5085777;28;20180;-69
2022/06/11 10:06:49;;;;;;;1.45;1.05;;;;;;;;;;5085296;28;20524;-69
2022/06/11 10:09:19;;;;;;;1.70;1.10;;;;;;;;;;5086131;28;20184;-69
2022/06/11 10:11:56;;;;;;;2.03;1.50;;;;;;;;;;5086252;28;20605;-68
2022/06/11 10:14:32;;;;;;;1.55;1.20;;;;;;;;;;5084960;28;20206;-69
2022/06/11 10:17:02;;;;;;;2.45;1.48;;;;;;;;;;5085836;28;20953;-69
2022/06/11 10:19:40;;;;;;;2.55;1.20;;;;;;;;;;5085797;28;20608;-69
2022/06/11 10:22:15;;;;;;;1.92;1.35;;;;;;;;;;5085668;28;20306;-69
2022/06/11 10:24:46;;;;;;;1.52;1.00;;;;;;;;;;5084922;28;20693;-71
2022/06/11 10:27:15;;;;;;;1.63;1.17;;;;;;;;;;5085725;28;20667;-68
2022/06/11 10:29:46;;;;;;;2.20;1.30;;;;;;;;;;5085465;28;20692;-68
2022/06/11 10:32:18;;;;;;;2.38;1.40;;;;;;;;;;5085408;28;20181;-70
2022/06/11 10:34:51;;;;;;;1.30;1.15;;;;;;;;;;5085120;28;20467;-69
2022/06/11 10:37:25;;;;;;;2.08;1.20;;;;;;;;;;5085418;28;21263;-69
2022/06/11 10:39:54;;;;;;;2.67;1.15;;;;;;;;;;5085592;28;20184;-68
2022/06/11 10:42:36;;;;;;;1.63;1.00;;;;;;;;;;5085189;28;20805;-69
2022/06/11 10:45:02;;;;;;;0.95;0.90;;;;;;;;;;5085251;28;20185;-68
2022/06/11 10:47:36;;;;;;;2.50;1.00;;;;;;;;;;5085102;28;20209;-69
2022/06/11 10:50:02;;;;;;;1.48;0.90;;;;;;;;;;5085544;28;20528;-67
2022/06/11 10:52:28;;;;;;;1.58;0.93;;;;;;;;;;5085362;28;20205;-68
2022/06/11 10:54:54;;;;;;;1.10;0.90;;;;;;;;;;5085049;28;20185;-69
2022/06/11 10:57:25;;;;;;;2.17;1.05;;;;;;;;;;5084944;28;21041;-70
2022/06/11 10:59:54;;;;;;;2.08;0.80;;;;;;;;;;5084738;28;20223;-69
2022/06/11 11:02:44;;;;;;;1.00;0.90;;;;;;;;;;5084632;28;20188;-68
2022/06/11 11:05:12;;;;;;;1.10;0.80;;;;;;;;;;5084269;28;20632;-68
2022/06/11 11:07:57;;;;;;;0.98;0.90;;;;;;;;;;5084543;28;20238;-71
2022/06/11 11:10:29;;;;;;;1.48;1.02;;;;;;;;;;5084746;28;20184;-68
2022/06/11 11:12:58;;;;;;;0.80;0.80;;;;;;;;;;5084763;28;20216;-70
2022/06/11 11:15:25;;;;;;;0.80;0.80;;;;;;;;;;5084180;28;20181;-68
2022/06/11 11:18:02;;;;;;;0.82;0.80;;;;;;;;;;5083968;28;20664;-69
2022/06/11 11:20:58;;;;;;;1.98;1.00;;;;;;;;;;5084609;28;20196;-68
2022/06/11 11:23:33;;;;;;;1.20;0.95;;;;;;;;;;5063281;28;20212;-68
2022/06/11 11:26:11;;;;;;;2.78;1.00;;;;;;;;;;5084607;28;20226;-69
2022/06/11 11:28:54;;;;;;;1.20;0.90;;;;;;;;;;5084621;28;20181;-68
2022/06/11 11:31:23;;;;;;;0.80;0.60;;;;;;;;;;5084427;28;20189;-69
2022/06/11 11:33:58;;;;;;;0.98;0.77;;;;;;;;;;5083670;28;20208;-68
2022/06/11 11:36:26;;;;;;;1.23;0.80;;;;;;;;;;5083878;28;20325;-70
2022/06/11 11:39:01;;;;;;;1.42;0.88;;;;;;;;;;5084332;28;20177;-69
2022/06/11 11:41:32;;;;;;;1.00;0.90;;;;;;;;;;5084214;28;20683;-69
2022/06/11 11:43:58;;;;;;;1.20;0.80;;;;;;;;;;5083434;28;20207;-69
2022/06/11 11:46:26;;;;;;;1.70;0.90;;;;;;;;;;5084091;28;20774;-69
2022/06/11 11:48:54;;;;;;;0.98;0.90;;;;;;;;;;5084112;28;20212;-67
2022/06/11 11:51:29;;;;;;;1.92;0.95;;;;;;;;;;5084161;28;20949;-70
2022/06/11 11:53:59;;;;;;;0.80;0.80;;;;;;;;;;5083542;28;20207;-69
2022/06/11 11:56:29;;;;;;;0.70;0.60;;;;;;;;;;5084306;28;20215;-68
2022/06/11 11:58:56;;;;;;;0.70;0.70;;;;;;;;;;5084389;28;20180;-68
2022/06/11 12:01:24;;;;;;;0.93;0.70;;;;;;;;;;5083950;28;20176;-69
2022/06/11 12:03:59;;;;;;;0.93;0.60;;;;;;;;;;5083483;28;20643;-69
2022/06/11 12:06:34;;;;;;;0.50;0.50;;;;;;;;;;5083894;28;20200;-68
2022/06/11 12:09:02;;;;;;;2.45;0.77;;;;;;;;;;5083857;28;20251;-69
2022/06/11 12:11:28;;;;;;;0.85;0.80;;;;;;;;;;5083556;28;20188;-69
2022/06/11 12:14:12;;;;;;;2.22;0.60;;;;;;;;;;5083228;28;20208;-69
2022/06/11 12:16:41;;;;;;;0.80;0.60;;;;;;;;;;5083593;28;20204;-69
2022/06/11 12:19:23;;;;;;;0.75;0.57;;;;;;;;;;5084019;28;20534;-69
2022/06/11 12:21:53;;;;;;;0.88;0.77;;;;;;;;;;5083711;28;20428;-68
2022/06/11 12:24:21;;;;;;;0.80;0.80;;;;;;;;;;5082973;28;20181;-68
2022/06/11 12:26:51;;;;;;;0.60;0.60;;;;;;;;;;5083705;28;20228;-70
2022/06/11 12:29:17;;;;;;;0.70;0.65;;;;;;;;;;5085380;28;20276;-69
2022/06/11 12:31:43;;;;;;;1.55;0.73;;;;;;;;;;5088025;28;20718;-72
2022/06/11 12:34:16;;;;;;;1.58;0.70;;;;;;;;;;5088065;28;20675;-73
2022/06/11 12:36:45;;;;;;;0.90;0.70;;;;;;;;;;5087478;28;20205;-70
2022/06/11 12:39:20;;;;;;;0.63;0.60;;;;;;;;;;5087787;28;20168;-70
2022/06/11 12:41:52;;;;;;;0.85;0.77;;;;;;;;;;5087828;28;20682;-70
2022/06/11 12:44:18;;;;;;;0.88;0.68;;;;;;;;;;5087094;28;20579;-70
2022/06/11 12:46:55;;;;;;;1.50;0.77;;;;;;;;;;5087322;28;20290;-69
2022/06/11 12:49:36;;;;;;;1.40;0.90;;;;;;;;;;5087223;28;20253;-69
2022/06/11 12:52:05;;;;;;;1.33;0.70;;;;;;;;;;5088137;28;20234;-69
2022/06/11 12:54:45;;;;;;;1.20;0.70;;;;;;;;;;5087203;28;20169;-69
2022/06/11 12:57:29;;;;;;;1.00;0.80;;;;;;;;;;5087005;28;20192;-70
2022/06/11 13:00:14;;;;;;;1.77;0.85;;;;;;;;;;5087212;28;20448;-71
2022/06/11 13:02:40;;;;;;;1.80;1.00;;;;;;;;;;5087523;28;20196;-70
2022/06/11 13:05:06;;;;;;;0.90;0.70;;;;;;;;;;5086572;28;20181;-70
2022/06/11 13:07:41;;;;;;;0.85;0.80;;;;;;;;;;5087127;28;20258;-69
2022/06/11 13:10:15;;;;;;;1.13;1.00;;;;;;;;;;5064828;28;20164;-70
2022/06/11 13:12:45;;;;;;;0.73;0.70;;;;;;;;;;5087270;28;20220;-71
2022/06/11 13:15:30;;;;;;;2.60;0.73;;;;;;;;;;5068145;28;20192;-70
2022/06/11 13:18:12;;;;;;;1.98;1.10;;;;;;;;;;5086920;28;20689;-71
2022/06/11 13:20:57;;;;;;;1.08;0.90;;;;;;;;;;5087219;28;20184;-70
2022/06/11 13:23:44;;;;;;;1.17;0.80;;;;;;;;;;5086711;28;20604;-71
2022/06/11 13:26:20;;;;;;;0.80;0.80;;;;;;;;;;5087076;28;20264;-71
2022/06/11 13:29:05;;;;;;;1.30;0.95;;;;;;;;;;5069161;28;20665;-69
2022/06/11 13:31:43;;;;;;;1.80;0.70;;;;;;;;;;5068500;28;20185;-72
2022/06/11 13:34:15;;;;;;;1.75;0.63;;;;;;;;;;5086089;28;20291;-71
2022/06/11 13:37:00;;;;;;;1.10;0.60;;;;;;;;;;5060791;28;20220;-69
2022/06/11 13:39:39;;;;;;;1.38;0.80;;;;;;;;;;5086378;28;20264;-71
2022/06/11 13:42:14;;;;;;;1.33;0.60;;;;;;;;;;5086084;28;20181;-70
2022/06/11 13:44:53;;;;;;;0.70;0.70;;;;;;;;;;5085622;28;20180;-71
2022/06/11 13:47:32;;;;;;;0.73;0.70;;;;;;;;;;5086050;28;20192;-70
2022/06/11 13:50:03;;;;;;;0.80;0.80;;;;;;;;;;5086406;28;20169;-70
2022/06/11 13:55:29;;;;;;;0.70;0.60;;;;;;;;;;5085710;28;20303;-70
2022/06/11 13:58:01;;;;;;;0.90;0.90;;;;;;;;;;5085970;28;20242;-69
2022/06/11 14:00:36;;;;;;;1.73;0.90;;;;;;;;;;5085833;28;20632;-71
2022/06/11 14:03:08;;;;;;;0.73;0.60;;;;;;;;;;5085946;28;20270;-71
2022/06/11 14:05:41;;;;;;;1.15;0.73;;;;;;;;;;5085608;28;20640;-70
2022/06/11 14:08:08;;;;;;;1.70;1.00;;;;;;;;;;5086178;28;20212;-70
2022/06/11 14:10:38;;;;;;;3.03;1.00;;;;;;;;;;5067130;28;20279;-70
2022/06/11 14:13:23;;;;;;;2.50;0.73;;;;;;;;;;5085778;28;20250;-70
2022/06/11 14:15:51;;;;;;;0.90;0.70;;;;;;;;;;5085494;28;21025;-69
2022/06/11 14:18:23;;;;;;;3.50;0.90;;;;;;;;;;5085992;28;20582;-70
2022/06/11 14:20:59;;;;;;;1.02;0.70;;;;;;;;;;5061256;28;20509;-71
2022/06/11 14:23:25;;;;;;;0.85;0.70;;;;;;;;;;5085813;28;20696;-70
2022/06/11 14:26:01;;;;;;;2.83;0.90;;;;;;;;;;5066890;28;20464;-70
2022/06/11 14:28:27;;;;;;;1.05;0.73;;;;;;;;;;5085697;28;20181;-69
2022/06/11 14:31:05;;;;;;;0.70;0.70;;;;;;;;;;5085604;28;20188;-69
2022/06/11 14:33:55;;;;;;;0.77;0.77;;;;;;;;;;5085267;28;20731;-72
2022/06/11 14:36:23;;;;;;;1.20;0.80;;;;;;;;;;5085138;28;20201;-70
2022/06/11 14:39:00;;;;;;;0.73;0.73;;;;;;;;;;5085462;28;20177;-70
2022/06/11 14:41:26;;;;;;;0.98;0.82;;;;;;;;;;5085471;28;20226;-71
2022/06/11 14:44:01;;;;;;;2.63;0.70;;;;;;;;;;5084739;28;20181;-71
2022/06/11 14:46:38;;;;;;;1.00;0.70;;;;;;;;;;5065876;28;20204;-71
2022/06/11 14:49:23;;;;;;;0.85;0.80;;;;;;;;;;5085526;28;20272;-69
2022/06/11 14:52:04;;;;;;;1.02;0.90;;;;;;;;;;5066270;28;20490;-70
2022/06/11 14:54:33;;;;;;;0.80;0.80;;;;;;;;;;5084616;28;20211;-71
2022/06/11 14:57:18;;;;;;;0.75;0.70;;;;;;;;;;5085732;28;20659;-70
2022/06/11 14:59:53;;;;;;;0.70;0.70;;;;;;;;;;5086046;28;20181;-69
2022/06/11 15:02:22;;;;;;;2.72;0.80;;;;;;;;;;5084678;28;20217;-70
2022/06/11 15:04:55;;;;;;;0.90;0.90;;;;;;;;;;5084530;28;20177;-71
2022/06/11 15:07:30;;;;;;;1.13;0.90;;;;;;;;;;5085159;28;20203;-69
2022/06/11 15:09:59;;;;;;;2.35;0.90;;;;;;;;;;5084983;28;20607;-69
2022/06/11 15:12:43;;;;;;;1.30;1.00;;;;;;;;;;5085130;28;20534;-69
2022/06/11 15:15:28;;;;;;;0.80;0.80;;;;;;;;;;5084474;28;20204;-70